Time;durP1;ratioP1;P1;durP2;ratioP2;P2;SDS_P1;SDS_P2;PMS_P1;PMS_P2;Temp;Humidity;BMP_temperature;BMP_pressure;BME280_temperature;BME280_humidity;BME280_pressure;Samples;Min_cycle;Max_cycle;Signal;HPM_P1;HPM_P2
2021/11/01 00:01:05;;;;;;;;;;;25.30;45.60;;;;;;5080722;28;19958;-78
2021/11/01 00:03:31;;;;;;;;;;;25.20;45.50;;;;;;5097374;28;19909;-80
2021/11/01 00:05:56;;;;;;;;;;;25.30;45.60;;;;;;5097658;28;20011;-80
2021/11/01 00:08:22;;;;;;;;;;;25.30;45.60;;;;;;5097673;28;19908;-79
2021/11/01 00:10:47;;;;;;;;;;;25.30;45.60;;;;;;5114655;28;20345;-80
2021/11/01 00:13:15;;;;;;;;;;;25.30;45.50;;;;;;5098540;28;19965;-80
2021/11/01 00:15:43;;;;;;;;;;;25.30;45.60;;;;;;5114185;28;19986;-81
2021/11/01 00:18:11;;;;;;;;;;;25.30;45.60;;;;;;5097243;28;19908;-84
2021/11/01 00:20:37;;;;;;;;;;;25.20;45.60;;;;;;5097584;28;19908;-82
2021/11/01 00:23:05;;;;;;;;;;;25.30;45.60;;;;;;5097312;28;20292;-80
2021/11/01 00:25:33;;;;;;;;;;;25.20;45.60;;;;;;5097261;28;20320;-79
2021/11/01 00:28:02;;;;;;;;;;;25.20;45.60;;;;;;5097195;28;19918;-79
2021/11/01 00:30:27;;;;;;;;;;;25.20;45.70;;;;;;5096851;28;19966;-80
2021/11/01 00:32:53;;;;;;;;;;;25.20;45.70;;;;;;5114423;28;19908;-80
2021/11/01 00:35:18;;;;;;;;;;;25.30;45.70;;;;;;5097152;28;19971;-81
2021/11/01 00:37:44;;;;;;;;;;;25.20;45.60;;;;;;5096786;28;19908;-79
2021/11/01 00:40:12;;;;;;;;;;;25.30;45.70;;;;;;5114118;28;19923;-80
2021/11/01 00:42:38;;;;;;;;;;;25.20;45.70;;;;;;5096967;28;19915;-79
2021/11/01 00:45:06;;;;;;;;;;;25.30;45.70;;;;;;5097117;28;19908;-80
2021/11/01 00:47:34;;;;;;;;;;;25.20;45.70;;;;;;5096886;28;19912;-83
2021/11/01 00:50:02;;;;;;;;;;;25.30;45.80;;;;;;5096500;28;19912;-84
2021/11/01 00:52:31;;;;;;;;;;;25.20;45.80;;;;;;5096955;28;19908;-82
2021/11/01 00:55:02;;;;;;;;;;;25.20;45.80;;;;;;5096987;28;19977;-85
2021/11/01 00:57:28;;;;;;;;;;;25.20;45.80;;;;;;5096120;28;19956;-84
2021/11/01 00:59:56;;;;;;;;;;;25.20;45.80;;;;;;5097667;28;19916;-86
2021/11/01 01:02:21;;;;;;;;;;;25.20;45.80;;;;;;5096500;28;19919;-85
2021/11/01 01:04:49;;;;;;;;;;;25.20;45.80;;;;;;5097461;28;20006;-84
2021/11/01 01:07:15;;;;;;;;;;;25.20;45.80;;;;;;5096446;28;19908;-83
2021/11/01 01:09:43;;;;;;;;;;;25.20;45.80;;;;;;5096517;28;20252;-85
2021/11/01 01:12:11;;;;;;;;;;;25.20;45.80;;;;;;5095603;28;19999;-84
2021/11/01 01:14:44;;;;;;;;;;;25.20;45.80;;;;;;5096327;28;19912;-86
2021/11/01 01:17:10;;;;;;;;;;;25.20;45.80;;;;;;5095743;28;19930;-85
2021/11/01 01:22:33;;;;;;;;;;;25.20;45.80;;;;;;5096387;28;19939;-83
2021/11/01 01:25:10;;;;;;;;;;;25.20;45.90;;;;;;5113108;28;19920;-85
2021/11/01 01:27:39;;;;;;;;;;;25.20;45.90;;;;;;5095802;28;19954;-83
2021/11/01 01:30:06;;;;;;;;;;;25.20;45.90;;;;;;5096125;28;20015;-86
2021/11/01 01:32:31;;;;;;;;;;;25.20;45.90;;;;;;5113352;28;19912;-84
2021/11/01 01:34:57;;;;;;;;;;;25.20;45.90;;;;;;5096859;28;19912;-85
2021/11/01 01:37:25;;;;;;;;;;;25.20;45.90;;;;;;5096390;28;19908;-87
2021/11/01 01:39:50;;;;;;;;;;;25.20;45.90;;;;;;5095985;28;19922;-84
2021/11/01 01:42:16;;;;;;;;;;;25.20;46.00;;;;;;5096760;28;19957;-82
2021/11/01 01:44:41;;;;;;;;;;;25.10;46.00;;;;;;5113028;28;20041;-84
2021/11/01 01:47:10;;;;;;;;;;;25.10;45.90;;;;;;5096115;28;20019;-84
2021/11/01 01:49:38;;;;;;;;;;;25.20;46.00;;;;;;5112976;28;19916;-85
2021/11/01 01:52:04;;;;;;;;;;;25.20;46.00;;;;;;5095996;28;19908;-84
2021/11/01 01:54:32;;;;;;;;;;;25.10;46.00;;;;;;5095593;28;20248;-83
2021/11/01 01:56:58;;;;;;;;;;;25.20;46.10;;;;;;5095911;28;19908;-83
2021/11/01 01:59:24;;;;;;;;;;;25.10;46.00;;;;;;5095593;28;19908;-83
2021/11/01 02:01:49;;;;;;;;;;;25.20;46.00;;;;;;5095726;28;20340;-82
2021/11/01 02:04:21;;;;;;;;;;;25.20;46.10;;;;;;5095455;28;19908;-82
2021/11/01 02:07:08;;;;;;;;;;;25.10;46.00;;;;;;5095513;28;19908;-86
2021/11/01 02:09:35;;;;;;;;;;;25.10;46.10;;;;;;5112425;28;19908;-82
2021/11/01 02:12:07;;;;;;;;;;;25.10;46.10;;;;;;5112337;28;19919;-86
2021/11/01 02:14:41;;;;;;;;;;;25.10;46.10;;;;;;5095154;28;19998;-82
2021/11/01 02:17:09;;;;;;;;;;;25.10;46.20;;;;;;5112778;28;19912;-84
2021/11/01 02:19:45;;;;;;;;;;;25.10;46.20;;;;;;5095096;28;20007;-83
2021/11/01 02:22:10;;;;;;;;;;;25.10;46.20;;;;;;5094138;28;19908;-83
2021/11/01 02:24:45;;;;;;;;;;;25.10;46.30;;;;;;5095474;28;19908;-83
2021/11/01 02:27:12;;;;;;;;;;;25.10;46.20;;;;;;5112262;28;20006;-84
2021/11/01 02:29:40;;;;;;;;;;;25.10;46.20;;;;;;5094984;28;20336;-81
2021/11/01 02:32:06;;;;;;;;;;;25.10;46.30;;;;;;5094908;28;19919;-82
2021/11/01 02:34:32;;;;;;;;;;;25.10;46.20;;;;;;5095124;28;19908;-85
2021/11/01 02:37:00;;;;;;;;;;;25.10;46.20;;;;;;5094930;28;19908;-84
2021/11/01 02:39:26;;;;;;;;;;;25.10;46.20;;;;;;5094818;28;19920;-83
2021/11/01 02:41:52;;;;;;;;;;;25.10;46.20;;;;;;5095133;28;19908;-84
2021/11/01 02:44:21;;;;;;;;;;;25.10;46.20;;;;;;5094736;28;19918;-83
2021/11/01 02:46:47;;;;;;;;;;;25.10;46.30;;;;;;5094324;28;19997;-82
2021/11/01 02:49:13;;;;;;;;;;;25.00;46.20;;;;;;5111904;28;19952;-82
2021/11/01 02:51:40;;;;;;;;;;;25.00;46.30;;;;;;5094886;28;19908;-83
2021/11/01 02:54:06;;;;;;;;;;;25.00;46.30;;;;;;5094470;28;19935;-84
2021/11/01 02:56:32;;;;;;;;;;;25.10;46.30;;;;;;5111851;28;19912;-83
2021/11/01 02:58:58;;;;;;;;;;;25.10;46.40;;;;;;5112264;28;19908;-82
2021/11/01 03:01:23;;;;;;;;;;;25.10;46.40;;;;;;5112190;28;19915;-84
2021/11/01 03:03:49;;;;;;;;;;;25.00;46.30;;;;;;5095129;28;20019;-86
2021/11/01 03:06:18;;;;;;;;;;;25.00;46.30;;;;;;5095190;28;19914;-85
2021/11/01 03:08:48;;;;;;;;;;;25.00;46.30;;;;;;5094466;28;19908;-84
2021/11/01 03:11:16;;;;;;;;;;;25.00;46.40;;;;;;5094472;28;19976;-85
2021/11/01 03:13:44;;;;;;;;;;;25.00;46.40;;;;;;5094295;28;19908;-83
2021/11/01 03:16:12;;;;;;;;;;;25.00;46.40;;;;;;5094239;28;19927;-81
2021/11/01 03:18:41;;;;;;;;;;;25.10;46.40;;;;;;5111455;28;19915;-83
2021/11/01 03:21:17;;;;;;;;;;;25.00;46.40;;;;;;5110510;28;19915;-81
2021/11/01 03:23:46;;;;;;;;;;;25.00;46.40;;;;;;5111049;28;20352;-82
2021/11/01 03:26:16;;;;;;;;;;;25.00;46.40;;;;;;5093784;28;20340;-82
2021/11/01 03:28:47;;;;;;;;;;;25.00;46.40;;;;;;5093984;28;20205;-86
2021/11/01 03:31:15;;;;;;;;;;;25.00;46.40;;;;;;5093874;28;19947;-87
2021/11/01 03:33:41;;;;;;;;;;;25.00;46.40;;;;;;5094941;28;19973;-83
2021/11/01 03:36:09;;;;;;;;;;;25.00;46.40;;;;;;5098179;28;19912;-82
2021/11/01 03:38:36;;;;;;;;;;;25.00;46.40;;;;;;5114733;28;20345;-82
2021/11/01 03:41:07;;;;;;;;;;;25.00;46.50;;;;;;5098779;28;19947;-85
2021/11/01 03:43:37;;;;;;;;;;;25.00;46.40;;;;;;5097588;28;19952;-84
2021/11/01 03:46:04;;;;;;;;;;;25.00;46.50;;;;;;5097798;28;19922;-82
2021/11/01 03:48:35;;;;;;;;;;;25.00;46.50;;;;;;5097994;28;19923;-82
2021/11/01 03:51:08;;;;;;;;;;;25.00;46.40;;;;;;5097693;28;19908;-82
2021/11/01 03:53:36;;;;;;;;;;;25.00;46.40;;;;;;5114540;28;19907;-81
2021/11/01 03:56:07;;;;;;;;;;;25.00;46.50;;;;;;5097815;28;19990;-81
2021/11/01 03:58:35;;;;;;;;;;;25.00;46.50;;;;;;5097608;28;19919;-81
2021/11/01 04:01:00;;;;;;;;;;;25.00;46.50;;;;;;5097510;28;19919;-81
2021/11/01 04:03:26;;;;;;;;;;;25.00;46.50;;;;;;5114946;28;19908;-82
2021/11/01 04:05:57;;;;;;;;;;;25.00;46.40;;;;;;5115312;28;20325;-84
2021/11/01 04:08:23;;;;;;;;;;;25.00;46.40;;;;;;5080970;28;20244;-83
2021/11/01 04:10:49;;;;;;;;;;;25.00;46.40;;;;;;5114976;28;19912;-84
2021/11/01 04:13:17;;;;;;;;;;;25.00;46.50;;;;;;5097859;28;19962;-82
2021/11/01 04:15:47;;;;;;;;;;;25.00;46.40;;;;;;5097391;28;19915;-81
2021/11/01 04:18:25;;;;;;;;;;;25.00;46.40;;;;;;5096843;28;19908;-83
2021/11/01 04:20:53;;;;;;;;;;;25.00;46.40;;;;;;5113561;28;19912;-81
2021/11/01 04:23:27;;;;;;;;;;;25.00;46.40;;;;;;5114190;28;19916;-82
2021/11/01 04:25:53;;;;;;;;;;;25.00;46.40;;;;;;5096977;28;20003;-83
2021/11/01 04:28:18;;;;;;;;;;;25.00;46.40;;;;;;5097324;28;19947;-82
2021/11/01 04:30:48;;;;;;;;;;;25.00;46.40;;;;;;5097687;28;19966;-86
2021/11/01 04:33:18;;;;;;;;;;;25.00;46.50;;;;;;5097064;28;20054;-85
2021/11/01 04:35:43;;;;;;;;;;;25.00;46.50;;;;;;5114348;28;19974;-84
2021/11/01 04:54:04;;;;;;;;;;;24.90;46.50;;;;;;5111762;28;20012;-81
2021/11/01 04:56:30;;;;;;;;;;;24.90;46.60;;;;;;5097451;28;19981;-80
2021/11/01 04:58:56;;;;;;;;;;;23.90;44.10;;;;;;5096731;28;20345;-77
2021/11/01 05:01:25;;;;;;;;;;;23.30;45.50;;;;;;5096824;28;19916;-83
2021/11/01 05:03:56;;;;;;;;;;;23.20;46.40;;;;;;5096036;28;19908;-82
2021/11/01 05:06:23;;;;;;;;;;;23.60;47.20;;;;;;5079822;28;19912;-79
2021/11/01 05:08:58;;;;;;;;;;;23.90;46.60;;;;;;5096120;28;19919;-79
2021/11/01 05:11:31;;;;;;;;;;;24.20;46.10;;;;;;5095565;28;19908;-80
2021/11/01 05:13:57;;;;;;;;;;;24.40;45.70;;;;;;5095476;28;20245;-80
2021/11/01 05:16:35;;;;;;;;;;;24.50;45.40;;;;;;5113200;28;20002;-81
2021/11/01 05:21:58;;;;;;;;;;;24.80;45.30;;;;;;5112253;28;19918;-83
2021/11/01 05:24:38;;;;;;;;;;;25.00;45.50;;;;;;5111836;28;19951;-80
2021/11/01 05:27:24;;;;;;;;;;;25.00;45.30;;;;;;5094638;28;19919;-81
2021/11/01 05:29:57;;;;;;;;;;;25.10;45.20;;;;;;5094025;28;20018;-82
2021/11/01 05:32:28;;;;;;;;;;;25.10;45.10;;;;;;5095221;28;19908;-79
2021/11/01 05:34:53;;;;;;;;;;;25.20;45.20;;;;;;5095201;28;19912;-79
2021/11/01 05:37:21;;;;;;;;;;;25.30;45.10;;;;;;5112973;28;19923;-80
2021/11/01 05:39:49;;;;;;;;;;;25.30;45.10;;;;;;5095532;28;19926;-78
2021/11/01 05:42:15;;;;;;;;;;;25.30;45.20;;;;;;5096867;28;19916;-80
2021/11/01 05:44:40;;;;;;;;;;;25.30;45.20;;;;;;5096128;28;20011;-81
2021/11/01 05:47:09;;;;;;;;;;;25.30;45.20;;;;;;5095946;28;20320;-80
2021/11/01 05:49:39;;;;;;;;;;;25.30;45.10;;;;;;5095254;28;19920;-83
2021/11/01 05:52:15;;;;;;;;;;;25.40;45.20;;;;;;5112817;28;19908;-82
2021/11/01 05:54:43;;;;;;;;;;;25.30;45.20;;;;;;5098001;28;19908;-85
2021/11/01 06:00:04;;;;;;;;;;;25.40;45.10;;;;;;5096640;28;19919;-81
2021/11/01 06:02:42;;;;;;;;;;;25.40;45.10;;;;;;5109469;28;19955;-81
2021/11/01 06:15:50;;;;;;;;;;;25.40;45.40;;;;;;5109997;28;20359;-79
2021/11/01 06:18:15;;;;;;;;;;;25.40;45.50;;;;;;5061761;28;19908;-81
2021/11/01 06:20:41;;;;;;;;;;;25.40;45.60;;;;;;5078130;28;20264;-80
2021/11/01 06:23:09;;;;;;;;;;;25.40;45.80;;;;;;5078232;28;20405;-82
2021/11/01 06:25:37;;;;;;;;;;;25.40;45.80;;;;;;5061895;28;20348;-79
2021/11/01 06:28:09;;;;;;;;;;;25.40;45.70;;;;;;5062144;28;19908;-78
2021/11/01 06:30:43;;;;;;;;;;;25.40;45.60;;;;;;5078884;28;19961;-81
2021/11/01 06:33:27;;;;;;;;;;;25.40;45.60;;;;;;5079607;28;20237;-80
2021/11/01 06:49:51;;;;;;;;;;;25.40;45.40;;;;;;5090493;28;19919;-79
2021/11/01 07:19:19;;;;;;;;;;;25.30;45.30;;;;;;5077636;28;20336;-80
2021/11/01 09:01:55;;;;;;;;;;;25.50;46.40;;;;;;5077058;28;20292;-80
2021/11/01 09:20:07;;;;;;;;;;;25.70;46.90;;;;;;5062807;28;19939;-81
2021/11/01 09:25:28;;;;;;;;;;;25.70;46.90;;;;;;5076936;28;19955;-84
2021/11/01 09:27:59;;;;;;;;;;;25.80;47.00;;;;;;5060628;28;19922;-82
2021/11/01 09:38:59;;;;;;;;;;;25.80;46.90;;;;;;5070816;28;20352;-82
2021/11/01 09:41:25;;;;;;;;;;;25.90;46.80;;;;;;5082836;28;20013;-84
2021/11/01 09:43:53;;;;;;;;;;;25.90;46.70;;;;;;5064087;28;20442;-79
2021/11/01 09:46:19;;;;;;;;;;;25.90;46.60;;;;;;5063879;28;19980;-82
2021/11/01 09:48:47;;;;;;;;;;;25.90;46.50;;;;;;5080030;28;19998;-83
2021/11/01 09:51:13;;;;;;;;;;;25.90;46.30;;;;;;5079633;28;19908;-82
2021/11/01 09:53:44;;;;;;;;;;;26.00;46.40;;;;;;5062669;28;20262;-85
2021/11/01 09:56:31;;;;;;;;;;;26.00;46.20;;;;;;5079962;28;19916;-82
2021/11/01 09:59:11;;;;;;;;;;;26.00;46.20;;;;;;5064954;28;19919;-83
2021/11/01 10:01:45;;;;;;;;;;;26.00;46.20;;;;;;5063999;28;20363;-79
2021/11/01 10:04:20;;;;;;;;;;;26.00;46.10;;;;;;5079197;28;20280;-85
2021/11/01 10:06:53;;;;;;;;;;;26.10;46.20;;;;;;5061974;28;20003;-81
2021/11/01 10:09:26;;;;;;;;;;;26.10;46.00;;;;;;5064445;28;20241;-83
2021/11/01 10:11:54;;;;;;;;;;;26.10;46.00;;;;;;5062142;28;19916;-80
2021/11/01 10:14:21;;;;;;;;;;;26.10;46.00;;;;;;5078439;28;20260;-81
2021/11/01 10:19:32;;;;;;;;;;;26.20;46.00;;;;;;5081611;28;19935;-80
2021/11/01 10:21:59;;;;;;;;;;;26.20;45.90;;;;;;5078697;28;19908;-79
2021/11/01 10:24:28;;;;;;;;;;;26.20;45.80;;;;;;5096082;28;20341;-78
2021/11/01 10:26:56;;;;;;;;;;;26.20;45.80;;;;;;5078806;28;19935;-81
2021/11/01 10:29:24;;;;;;;;;;;26.30;45.80;;;;;;5078476;28;19915;-80
2021/11/01 10:31:49;;;;;;;;;;;26.30;45.90;;;;;;5095839;28;20253;-81
2021/11/01 10:34:15;;;;;;;;;;;26.20;45.80;;;;;;5096302;28;19908;-81
2021/11/01 10:36:43;;;;;;;;;;;26.30;45.90;;;;;;5078620;28;19977;-79
2021/11/01 10:39:12;;;;;;;;;;;26.30;45.80;;;;;;5061249;28;19920;-82
2021/11/01 10:41:45;;;;;;;;;;;26.30;45.50;;;;;;5078112;28;19908;-81
2021/11/01 10:44:39;;;;;;;;;;;26.30;45.20;;;;;;5061630;28;20327;-80
2021/11/01 11:14:04;;;;;;;;;;;26.30;45.80;;;;;;5078231;28;19987;-82
2021/11/01 11:19:46;;;;;;;;;;;26.30;45.60;;;;;;5080477;28;20244;-81
2021/11/01 11:33:41;;;;;;;;;;;26.30;45.30;;;;;;5079910;28;20002;-80
2021/11/01 11:39:17;;;;;;;;;;;26.30;45.30;;;;;;5080101;28;19974;-81
2021/11/01 11:49:39;;;;;;;;;;;26.30;45.30;;;;;;5077850;28;20264;-78
2021/11/01 11:52:05;;;;;;;;;;;26.40;45.30;;;;;;5077396;28;19914;-81
2021/11/01 11:54:39;;;;;;;;;;;26.40;45.40;;;;;;5076865;28;19938;-81
2021/11/01 11:57:15;;;;;;;;;;;26.30;45.10;;;;;;5080805;28;19920;-79
2021/11/01 11:59:41;;;;;;;;;;;26.40;45.20;;;;;;5080509;28;19909;-79
2021/11/01 12:02:07;;;;;;;;;;;26.40;45.00;;;;;;5080510;28;20333;-79
2021/11/01 12:04:36;;;;;;;;;;;26.40;45.00;;;;;;5080368;28;19950;-79
2021/11/01 12:07:03;;;;;;;;;;;26.40;45.00;;;;;;5064326;28;19908;-82
2021/11/01 12:12:16;;;;;;;;;;;26.40;45.10;;;;;;5080280;28;19908;-82
2021/11/01 12:17:04;;;;;;;;;;;26.40;44.80;;;;;;5083091;28;19908;-81
2021/11/01 12:17:28;;;;;;;;;;;26.40;45.00;;;;;;5082730;28;19915;-81
2021/11/01 12:19:58;;;;;;;;;;;26.40;45.20;;;;;;5080793;28;19909;-80
2021/11/01 12:22:28;;;;;;;;;;;26.50;45.30;;;;;;5098005;28;20407;-78
2021/11/01 12:24:59;;;;;;;;;;;26.40;45.10;;;;;;5080416;28;19912;-80
2021/11/01 12:27:24;;;;;;;;;;;26.40;45.10;;;;;;5080211;28;19991;-79
2021/11/01 12:29:50;;;;;;;;;;;26.50;45.20;;;;;;5063600;28;20364;-80
2021/11/01 12:32:16;;;;;;;;;;;26.50;45.20;;;;;;5063285;28;19919;-81
2021/11/01 12:34:52;;;;;;;;;;;26.50;45.10;;;;;;5097396;28;19908;-77
2021/11/01 12:37:28;;;;;;;;;;;26.50;45.20;;;;;;5079994;28;20010;-79
2021/11/01 12:40:04;;;;;;;;;;;26.50;45.20;;;;;;5097244;28;19920;-81
2021/11/01 12:42:42;;;;;;;;;;;26.50;45.30;;;;;;5080624;28;19981;-79
2021/11/01 12:59:04;;;;;;;;;;;26.40;45.30;;;;;;5082610;28;19919;-83
2021/11/01 13:01:30;;;;;;;;;;;26.40;45.40;;;;;;5097260;28;19916;-81
2021/11/01 13:04:15;;;;;;;;;;;26.40;45.70;;;;;;5079294;28;20321;-80
2021/11/01 13:06:58;;;;;;;;;;;26.50;45.90;;;;;;5078169;28;19947;-80
2021/11/01 13:09:29;;;;;;;;;;;26.50;45.90;;;;;;5064771;28;19908;-80
2021/11/01 13:19:46;;;;;;;;;;;26.50;46.20;;;;;;5097017;28;19919;-83
2021/11/01 13:22:21;;;;;;;;;;;26.50;46.40;;;;;;5079233;28;20289;-82
2021/11/01 13:35:54;;;;;;;;;;;26.50;46.90;;;;;;5082026;28;19963;-79
2021/11/01 13:38:23;;;;;;;;;;;26.50;47.00;;;;;;5080223;28;20019;-81
2021/11/01 13:40:52;;;;;;;;;;;26.50;47.20;;;;;;5061840;28;20269;-80
2021/11/01 13:43:24;;;;;;;;;;;26.60;47.30;;;;;;5078901;28;20006;-82
2021/11/01 13:45:58;;;;;;;;;;;26.60;47.20;;;;;;5061554;28;19935;-79
2021/11/01 13:48:30;;;;;;;;;;;24.90;40.40;;;;;;5096289;28;19908;-80
2021/11/01 13:51:09;;;;;;;;;;;21.50;45.70;;;;;;5078391;28;19915;-79
2021/11/01 13:54:21;;;;;;;;;;;20.00;48.90;;;;;;5078519;28;19908;-80
2021/11/01 13:56:51;;;;;;;;;;;19.20;50.80;;;;;;5082098;28;19951;-80
2021/11/01 14:02:31;;;;;;;;;;;20.30;52.00;;;;;;5081326;28;19931;-79
2021/11/01 14:29:26;;;;;;;;;;;24.10;42.40;;;;;;5095224;28;19973;-80
2021/11/01 15:07:43;;;;;;;;;;;25.70;44.80;;;;;;5074561;28;19923;-80
2021/11/01 15:10:21;;;;;;;;;;;25.70;44.90;;;;;;5073120;28;20344;-78
2021/11/01 15:15:39;;;;;;;;;;;25.80;45.20;;;;;;5059377;28;19956;-78
2021/11/01 16:19:07;;;;;;;;;;;26.30;48.20;;;;;;5098402;28;20299;-83
2021/11/01 16:21:33;;;;;;;;;;;26.30;48.30;;;;;;5063609;28;19915;-81
2021/11/01 16:23:58;;;;;;;;;;;26.30;48.70;;;;;;5079696;28;19908;-78
2021/11/01 16:26:25;;;;;;;;;;;26.40;48.70;;;;;;5097498;28;20293;-83
2021/11/01 16:29:00;;;;;;;;;;;26.40;48.70;;;;;;5079834;28;19912;-82
2021/11/01 16:31:47;;;;;;;;;;;26.40;48.80;;;;;;5080882;28;19919;-83
2021/11/01 16:34:29;;;;;;;;;;;26.40;48.90;;;;;;5082752;28;19908;-78
2021/11/01 16:39:24;;;;;;;;;;;26.40;48.60;;;;;;5097718;28;19923;-84
2021/11/01 16:41:52;;;;;;;;;;;26.40;48.60;;;;;;5062837;28;19915;-79
2021/11/01 16:44:27;;;;;;;;;;;26.40;48.40;;;;;;5079902;28;20003;-78
2021/11/01 16:46:53;;;;;;;;;;;26.40;48.30;;;;;;5097352;28;20013;-81
2021/11/01 16:49:21;;;;;;;;;;;26.40;48.30;;;;;;5079403;28;19951;-76
2021/11/01 16:51:47;;;;;;;;;;;26.40;48.30;;;;;;5097268;28;20312;-77
2021/11/01 16:54:16;;;;;;;;;;;26.30;48.10;;;;;;5079529;28;20015;-79
2021/11/01 17:02:01;;;;;;;;;;;26.40;48.10;;;;;;5097661;28;19908;-78
2021/11/01 17:04:28;;;;;;;;;;;26.30;48.10;;;;;;5081067;28;19937;-83
2021/11/01 17:07:02;;;;;;;;;;;26.30;48.10;;;;;;5062718;28;19908;-80
2021/11/01 17:10:10;;;;;;;;;;;26.30;48.00;;;;;;5080848;28;19908;-79
2021/11/01 17:26:01;;;;;;;;;;;26.30;48.00;;;;;;5077135;28;19939;-78
2021/11/01 17:28:50;;;;;;;;;;;26.30;48.00;;;;;;5075426;28;20408;-77
2021/11/01 17:37:03;;;;;;;;;;;26.30;48.30;;;;;;5090583;28;19924;-78
2021/11/01 18:37:57;;;;;;;;;;;26.40;48.60;;;;;;5080545;28;19977;-80
2021/11/01 18:53:10;;;;;;;;;;;26.50;48.60;;;;;;5095551;28;19927;-77
2021/11/01 18:55:38;;;;;;;;;;;26.50;48.70;;;;;;5077222;28;19920;-82
2021/11/01 18:58:06;;;;;;;;;;;26.50;48.40;;;;;;5077323;28;19907;-79
2021/11/01 19:00:33;;;;;;;;;;;26.50;48.40;;;;;;5095387;28;19920;-78
2021/11/01 19:03:02;;;;;;;;;;;26.50;48.30;;;;;;5077138;28;20406;-79
2021/11/01 19:05:53;;;;;;;;;;;26.50;48.20;;;;;;5077430;28;19919;-81
2021/11/01 19:08:34;;;;;;;;;;;26.50;48.70;;;;;;5080013;28;20006;-80
2021/11/01 19:17:20;;;;;;;;;;;26.50;48.00;;;;;;5079782;28;19943;-77
2021/11/01 20:06:00;;;;;;;;;;;26.20;48.10;;;;;;5094492;28;20256;-79
2021/11/01 20:09:18;;;;;;;;;;;26.10;48.10;;;;;;5079199;28;19907;-81
2021/11/01 20:14:44;;;;;;;;;;;26.10;48.10;;;;;;5057033;28;20070;-79
2021/11/01 21:26:05;;;;;;;;;;;25.90;48.60;;;;;;5091043;28;20463;-81
2021/11/01 21:28:32;;;;;;;;;;;25.90;48.50;;;;;;5075835;28;20395;-80
2021/11/01 21:30:59;;;;;;;;;;;25.90;48.50;;;;;;5092562;28;19948;-80
2021/11/01 21:33:32;;;;;;;;;;;25.90;48.50;;;;;;5075872;28;19909;-78
2021/11/01 21:36:06;;;;;;;;;;;25.90;48.40;;;;;;5076593;28;19916;-79
2021/11/01 21:38:34;;;;;;;;;;;25.90;48.40;;;;;;5092010;28;19928;-80
2021/11/01 21:41:00;;;;;;;;;;;25.90;48.40;;;;;;5075981;28;19919;-79
2021/11/01 21:43:25;;;;;;;;;;;25.90;48.40;;;;;;5100069;28;19908;-79
2021/11/01 21:45:51;;;;;;;;;;;25.90;48.40;;;;;;5093031;28;19912;-81
2021/11/01 21:48:16;;;;;;;;;;;25.90;48.40;;;;;;5076060;28;19919;-77
2021/11/01 21:50:45;;;;;;;;;;;25.90;48.40;;;;;;5077034;28;19909;-78
2021/11/01 21:53:13;;;;;;;;;;;25.90;48.40;;;;;;5094344;28;19919;-77
2021/11/01 21:55:42;;;;;;;;;;;25.90;49.00;;;;;;5095733;28;19986;-77
2021/11/01 22:01:41;;;;;;;;;;;25.90;48.40;;;;;;5014320;28;20461;-79
2021/11/01 22:17:52;;;;;;;;;;;24.00;41.10;;;;;;5111519;28;19974;-76
2021/11/01 22:20:21;;;;;;;;;;;22.50;42.60;;;;;;5081853;28;20256;-76
2021/11/01 22:25:27;;;;;;;;;;;19.00;49.80;;;;;;5078339;28;19939;-78
2021/11/01 22:39:25;;;;;;;;;;;23.20;46.40;;;;;;5081963;28;20408;-79
2021/11/01 22:42:23;;;;;;;;;;;23.60;45.80;;;;;;5095464;28;19912;-82
2021/11/01 22:44:58;;;;;;;;;;;24.00;45.30;;;;;;5085531;28;19972;-81
2021/11/01 22:58:09;;;;;;;;;;;24.60;44.90;;;;;;5078980;28;20023;-82
2021/11/01 23:00:45;;;;;;;;;;;24.70;44.80;;;;;;5077457;28;19940;-80
2021/11/01 23:03:32;;;;;;;;;;;24.70;44.80;;;;;;5061341;28;19912;-80
2021/11/01 23:06:13;;;;;;;;;;;24.70;44.80;;;;;;5063643;28;20356;-82
2021/11/01 23:33:22;;;;;;;;;;;24.80;45.10;;;;;;5079824;28;19919;-80
2021/11/01 23:35:50;;;;;;;;;;;24.80;45.10;;;;;;5060289;28;19912;-82
2021/11/01 23:38:16;;;;;;;;;;;24.80;45.10;;;;;;5060304;28;20256;-83
2021/11/01 23:40:42;;;;;;;;;;;24.90;45.20;;;;;;5060761;28;19913;-82
2021/11/01 23:43:13;;;;;;;;;;;24.90;45.10;;;;;;5060403;28;19919;-81
2021/11/01 23:45:39;;;;;;;;;;;24.90;45.10;;;;;;5060846;28;19918;-81
2021/11/01 23:48:07;;;;;;;;;;;24.90;45.20;;;;;;5077504;28;19943;-79
2021/11/01 23:50:34;;;;;;;;;;;24.90;45.20;;;;;;5077361;28;19908;-79
2021/11/01 23:53:06;;;;;;;;;;;24.90;45.20;;;;;;5064906;28;20360;-80
2021/11/01 23:55:32;;;;;;;;;;;24.90;45.20;;;;;;5065204;28;20348;-80
2021/11/01 23:57:58;;;;;;;;;;;24.90;45.20;;;;;;5047024;28;19919;-85
